Jefferson, SD (57038)

7:51 PM CDT on September 02, 2015 (GMT -0500)
McCook Lake SD | | Change Station
CLOSE
Current Station
Personal Weather Station
Location: McCook Lake, SD
Elevation: 1114 ft
Nearby Weather Stations

Elev 1114 ft 42.54 °N, 96.51 °W | Updated 2 seconds ago

Clear
Clear
81.8 °F
Feels Like 86 °F
N
4.0
Wind Variable Wind from SE
Gusts 9.0 mph

Today
High -- | Low -- °F
--% Chance of Precip.
Yesterday
High -- | Low -- °F
Precip. -- in
6:51 AM 7:59 PM
Waning Gibbous, 75% visible
Pressure 29.79 in
Visibility 10.0 miles
Clouds Clear
Heat Index 86 °F
Dew Point 71 °F
Humidity 71%
Rainfall 0.00 in
Snow Depth Not available.
UV 1 out of 12
Pollen 9.00 out of 12
Air Quality Not available.
Flu Activity Not available.
METAR KSUX 022352Z 16006KT 10SM CLR 29/19 A2981 RMK AO2 SLP087 T02890194 10306 20289 56006 $
Pressure 29.79 in
Visibility 10.0 miles
Clouds Clear
Heat Index 86 °F
Dew Point 71 °F
Humidity 71%
Rainfall 0.00 in
Snow Depth Not available.
UV 1 out of 12
Pollen 9.00 out of 12
Air Quality Not available.
Flu Activity Not available.
METAR KSUX 022352Z 16006KT 10SM CLR 29/19 A2981 RMK AO2 SLP087 T02890194 10306 20289 56006 $

10-Day Weather Forecast

×

Almanac

Astronomy

Sep. 02, 2015 Rise Set
Actual Time
Civil Twilight
Nautical Twilight
Astronomical Twilight
Moon
Length of Visible Light
Length of Day
Tomorrow will be .
, % of the Moon is Illuminated

Today's Extremes

State Highs State Lows

Community

WunderPhotos

Upload Photos

1,851,855 photos uploaded!

WunderBlogs® & News

Nearby

Air Quality

  Air Quality AQ Index Pollutant
Not available.

Snow Depth

Station Depth Elevation

Earthquake Activity

City Distance Mag. Time & Date
Minimum magnitude displayed is 2.5.

Coastal Water Temperatures

Place Temperature

Stations

Nearby Weather Stations

Station Location Temp. Windchill Dew Point Humidity Wind Precip. Elev Updated Type